Terminal Aerodrome Forecast
Issued by NWS Mt. Holly, NJ

Home | Current Version | Previous Version | Text Only | Print | Product List | Glossary On
Versions: 1 2 3 4 5 6 7 8 9 10 11 12 13 14 15 16 17 18 19 20 21 22 23 24 25
157
FTUS41 KPHI 240522
TAFILG
TAF
KILG 240522Z 2406/2506 VRB03KT 6SM -SHRA BR SCT050 BKN120
      TEMPO 2408/2411 5SM BR SCT020
     FM241200 32005KT P6SM SCT050 BKN150
     FM241800 30010KT P6SM SCT050 BKN120
     FM242300 29006KT P6SM SCT120
     FM250300 25004KT P6SM SKC=

USA.gov is the U.S. government's official web portal to all federal, state and local government web resources and services.